RTW1004 VNKT-VNLK
Flight info
| Callsign | RTW1004 |
|---|---|
| Flight time | 0h 31m |
| Altitude | 12500 |
| Route | IGRIS1E KIMTI/N0179F130 DCT VNPL |
| Aircraft | DA62/L-SDFGRY/C |
Departure
| Time | 2026-04-18 09:00 |
|---|---|
| Airport | Tribhuvan International Airport (VNKT) |
Arrival
| Time | 2026-04-18 09:31 |
|---|---|
| Airport | Tenzing-Hillary Airport (VNLK) |
| Time | Latitude | Longitude | Altitude | Speed | Heading |
|---|---|---|---|---|---|
| 2026-04-18 09:00 | 27.66417 | 85.33491 | 5031 ft | 137 kts | 273° |
| 2026-04-18 09:00 | 27.66538 | 85.32761 | 5013 ft | 140 kts | 279° |
| 2026-04-18 09:00 | 27.66740 | 85.31746 | 5243 ft | 132 kts | 279° |
| 2026-04-18 09:00 | 27.66905 | 85.30731 | 5453 ft | 132 kts | 277° |
| 2026-04-18 09:01 | 27.67056 | 85.29676 | 5437 ft | 142 kts | 280° |
| 2026-04-18 09:01 | 27.67455 | 85.28671 | 5511 ft | 145 kts | 305° |
| 2026-04-18 09:01 | 27.68246 | 85.27971 | 5591 ft | 147 kts | 330° |
| 2026-04-18 09:01 | 27.69243 | 85.27748 | 5754 ft | 148 kts | 0° |
| 2026-04-18 09:02 | 27.70233 | 85.28072 | 5938 ft | 151 kts | 23° |
| 2026-04-18 09:02 | 27.71173 | 85.28688 | 5916 ft | 160 kts | 31° |
| 2026-04-18 09:02 | 27.72035 | 85.29498 | 6087 ft | 163 kts | 41° |
| 2026-04-18 09:02 | 27.72782 | 85.30482 | 6298 ft | 167 kts | 51° |
| 2026-04-18 09:03 | 27.73378 | 85.31621 | 6500 ft | 169 kts | 62° |
| 2026-04-18 09:03 | 27.73789 | 85.32868 | 6702 ft | 170 kts | 73° |
| 2026-04-18 09:03 | 27.73999 | 85.34182 | 6905 ft | 171 kts | 83° |
| 2026-04-18 09:03 | 27.74001 | 85.35530 | 7108 ft | 172 kts | 95° |
| 2026-04-18 09:04 | 27.73787 | 85.36855 | 7321 ft | 172 kts | 105° |
| 2026-04-18 09:04 | 27.73369 | 85.38124 | 7526 ft | 173 kts | 116° |
| 2026-04-18 09:04 | 27.72754 | 85.39285 | 7739 ft | 174 kts | 127° |
| 2026-04-18 09:04 | 27.71959 | 85.40311 | 7953 ft | 174 kts | 138° |
| 2026-04-18 09:05 | 27.71015 | 85.41157 | 8160 ft | 172 kts | 148° |
| 2026-04-18 09:05 | 27.69961 | 85.41792 | 8398 ft | 170 kts | 159° |
| 2026-04-18 09:05 | 27.68852 | 85.42197 | 8684 ft | 165 kts | 169° |
| 2026-04-18 09:05 | 27.67728 | 85.42400 | 8972 ft | 163 kts | 173° |
| 2026-04-18 09:06 | 27.66655 | 85.42839 | 9175 ft | 171 kts | 153° |
| 2026-04-18 09:06 | 27.65713 | 85.43684 | 9346 ft | 176 kts | 133° |
| 2026-04-18 09:06 | 27.65053 | 85.44831 | 9651 ft | 174 kts | 113° |
| 2026-04-18 09:06 | 27.64708 | 85.46132 | 9942 ft | 172 kts | 104° |
| 2026-04-18 09:07 | 27.64399 | 85.47412 | 10206 ft | 171 kts | 104° |
| 2026-04-18 09:07 | 27.64091 | 85.48706 | 10469 ft | 170 kts | 104° |
| 2026-04-18 09:07 | 27.63783 | 85.50010 | 10752 ft | 170 kts | 104° |
| 2026-04-18 09:07 | 27.63483 | 85.51273 | 11029 ft | 169 kts | 104° |
| 2026-04-18 09:08 | 27.63179 | 85.52559 | 11310 ft | 170 kts | 104° |
| 2026-04-18 09:08 | 27.62873 | 85.53854 | 11598 ft | 172 kts | 103° |
| 2026-04-18 09:08 | 27.62564 | 85.55161 | 11890 ft | 172 kts | 103° |
| 2026-04-18 09:08 | 27.62255 | 85.56462 | 12173 ft | 171 kts | 103° |
| 2026-04-18 09:09 | 27.61946 | 85.57764 | 12461 ft | 172 kts | 102° |
| 2026-04-18 09:09 | 27.61640 | 85.59060 | 12760 ft | 170 kts | 103° |
| 2026-04-18 09:09 | 27.61334 | 85.60344 | 13054 ft | 169 kts | 103° |
| 2026-04-18 09:09 | 27.61031 | 85.61623 | 13350 ft | 168 kts | 103° |
| 2026-04-18 09:10 | 27.60847 | 85.62902 | 13658 ft | 164 kts | 90° |
| 2026-04-18 09:10 | 27.60785 | 85.64177 | 13942 ft | 162 kts | 91° |
| 2026-04-18 09:10 | 27.60714 | 85.65434 | 14205 ft | 159 kts | 91° |
| 2026-04-18 09:10 | 27.60644 | 85.66671 | 14475 ft | 157 kts | 90° |
| 2026-04-18 09:11 | 27.60575 | 85.67894 | 14746 ft | 155 kts | 90° |
| 2026-04-18 09:11 | 27.60507 | 85.69094 | 15022 ft | 152 kts | 91° |
| 2026-04-18 09:11 | 27.60441 | 85.70270 | 15291 ft | 148 kts | 90° |
| 2026-04-18 09:11 | 27.60375 | 85.71415 | 15564 ft | 145 kts | 91° |
| 2026-04-18 09:12 | 27.60180 | 85.72528 | 15841 ft | 144 kts | 100° |
| 2026-04-18 09:12 | 27.59974 | 85.73605 | 16120 ft | 141 kts | 99° |
| 2026-04-18 09:12 | 27.59771 | 85.74669 | 16397 ft | 137 kts | 99° |
| 2026-04-18 09:12 | 27.59567 | 85.75734 | 16510 ft | 145 kts | 99° |
| 2026-04-18 09:13 | 27.59345 | 85.76912 | 16523 ft | 161 kts | 99° |
| 2026-04-18 09:13 | 27.59082 | 85.78299 | 16034 ft | 198 kts | 100° |
| 2026-04-18 09:13 | 27.58790 | 85.79795 | 16131 ft | 192 kts | 100° |
| 2026-04-18 09:13 | 27.58509 | 85.81250 | 16245 ft | 189 kts | 100° |
| 2026-04-18 09:14 | 27.58234 | 85.82683 | 16353 ft | 186 kts | 100° |
| 2026-04-18 09:14 | 27.57962 | 85.84096 | 16465 ft | 182 kts | 100° |
| 2026-04-18 09:14 | 27.57693 | 85.85495 | 16509 ft | 185 kts | 99° |
| 2026-04-18 09:14 | 27.57417 | 85.86930 | 16511 ft | 189 kts | 100° |
| 2026-04-18 09:15 | 27.57136 | 85.88386 | 16506 ft | 190 kts | 100° |
| 2026-04-18 09:15 | 27.56854 | 85.89846 | 16518 ft | 191 kts | 100° |
| 2026-04-18 09:15 | 27.56570 | 85.91318 | 16520 ft | 193 kts | 100° |
| 2026-04-18 09:15 | 27.56284 | 85.92803 | 16520 ft | 194 kts | 100° |
| 2026-04-18 09:16 | 27.55995 | 85.94296 | 16527 ft | 196 kts | 100° |
| 2026-04-18 09:16 | 27.55705 | 85.95796 | 16526 ft | 196 kts | 100° |
| 2026-04-18 09:16 | 27.55412 | 85.97308 | 16405 ft | 199 kts | 100° |
| 2026-04-18 09:16 | 27.55112 | 85.98861 | 15541 ft | 234 kts | 100° |
| 2026-04-18 09:17 | 27.54755 | 86.00707 | 15025 ft | 237 kts | 101° |
| 2026-04-18 09:17 | 27.54416 | 86.02421 | 15144 ft | 218 kts | 101° |
| 2026-04-18 09:17 | 27.54097 | 86.04064 | 15253 ft | 206 kts | 100° |
| 2026-04-18 09:17 | 27.53806 | 86.05578 | 15357 ft | 195 kts | 100° |
| 2026-04-18 09:18 | 27.53520 | 86.07049 | 15471 ft | 190 kts | 100° |
| 2026-04-18 09:18 | 27.53241 | 86.08489 | 15586 ft | 187 kts | 100° |
| 2026-04-18 09:18 | 27.52963 | 86.09914 | 15707 ft | 185 kts | 100° |
| 2026-04-18 09:18 | 27.52687 | 86.11331 | 15816 ft | 185 kts | 100° |
| 2026-04-18 09:19 | 27.52412 | 86.12744 | 15933 ft | 184 kts | 100° |
| 2026-04-18 09:19 | 27.52139 | 86.14144 | 16055 ft | 182 kts | 100° |
| 2026-04-18 09:19 | 27.51867 | 86.15544 | 16172 ft | 183 kts | 100° |
| 2026-04-18 09:19 | 27.51594 | 86.16945 | 16294 ft | 182 kts | 100° |
| 2026-04-18 09:20 | 27.51322 | 86.18336 | 16415 ft | 182 kts | 100° |
| 2026-04-18 09:20 | 27.51051 | 86.19722 | 16528 ft | 181 kts | 100° |
| 2026-04-18 09:20 | 27.50777 | 86.21128 | 16546 ft | 187 kts | 100° |
| 2026-04-18 09:20 | 27.50495 | 86.22572 | 16550 ft | 189 kts | 101° |
| 2026-04-18 09:21 | 27.50210 | 86.24029 | 16555 ft | 192 kts | 100° |
| 2026-04-18 09:21 | 27.49923 | 86.25493 | 16549 ft | 191 kts | 99° |
| 2026-04-18 09:21 | 27.49890 | 86.27014 | 16325 ft | 199 kts | 75° |
| 2026-04-18 09:21 | 27.50356 | 86.28427 | 16426 ft | 189 kts | 60° |
| 2026-04-18 09:22 | 27.50906 | 86.29754 | 16533 ft | 185 kts | 60° |
| 2026-04-18 09:22 | 27.51418 | 86.30947 | 14802 ft | 233 kts | 47° |
| 2026-04-18 09:22 | 27.52394 | 86.32152 | 14629 ft | 186 kts | 44° |
| 2026-04-18 09:22 | 27.53098 | 86.33214 | 14475 ft | 156 kts | 56° |
| 2026-04-18 09:23 | 27.53645 | 86.34365 | 14487 ft | 176 kts | 59° |
| 2026-04-18 09:23 | 27.54119 | 86.35703 | 14385 ft | 191 kts | 69° |
| 2026-04-18 09:23 | 27.54484 | 86.37140 | 14530 ft | 189 kts | 72° |
| 2026-04-18 09:23 | 27.54819 | 86.38575 | 14644 ft | 192 kts | 71° |
| 2026-04-18 09:24 | 27.55211 | 86.40022 | 14756 ft | 191 kts | 67° |
| 2026-04-18 09:24 | 27.55667 | 86.41424 | 14897 ft | 191 kts | 64° |
| 2026-04-18 09:24 | 27.56192 | 86.42799 | 14949 ft | 194 kts | 67° |
| 2026-04-18 09:24 | 27.56579 | 86.44323 | 14788 ft | 207 kts | 72° |
| 2026-04-18 09:25 | 27.56940 | 86.45864 | 14921 ft | 199 kts | 75° |
| 2026-04-18 09:25 | 27.57240 | 86.47354 | 15117 ft | 191 kts | 76° |
| 2026-04-18 09:25 | 27.57396 | 86.48874 | 15008 ft | 204 kts | 88° |
| 2026-04-18 09:25 | 27.57190 | 86.50492 | 14718 ft | 216 kts | 103° |
| 2026-04-18 09:26 | 27.56856 | 86.52055 | 14430 ft | 187 kts | 101° |
| 2026-04-18 09:26 | 27.56611 | 86.53396 | 14202 ft | 170 kts | 98° |
| 2026-04-18 09:26 | 27.56446 | 86.54676 | 13924 ft | 162 kts | 96° |
| 2026-04-18 09:26 | 27.56383 | 86.55914 | 13650 ft | 159 kts | 83° |
| 2026-04-18 09:27 | 27.56578 | 86.57210 | 13334 ft | 183 kts | 75° |
| 2026-04-18 09:27 | 27.56908 | 86.58673 | 13169 ft | 194 kts | 70° |
| 2026-04-18 09:27 | 27.57322 | 86.60118 | 13020 ft | 196 kts | 71° |
| 2026-04-18 09:27 | 27.57743 | 86.61598 | 12779 ft | 202 kts | 69° |
| 2026-04-18 09:28 | 27.58255 | 86.63072 | 12700 ft | 198 kts | 61° |
| 2026-04-18 09:28 | 27.58849 | 86.64414 | 12837 ft | 185 kts | 59° |
| 2026-04-18 09:28 | 27.59605 | 86.65534 | 12775 ft | 169 kts | 43° |
| 2026-04-18 09:28 | 27.60424 | 86.66428 | 12557 ft | 159 kts | 41° |
| 2026-04-18 09:29 | 27.61224 | 86.67221 | 12439 ft | 152 kts | 41° |
| 2026-04-18 09:29 | 27.62025 | 86.68023 | 12116 ft | 155 kts | 38° |
| 2026-04-18 09:29 | 27.62889 | 86.68773 | 11653 ft | 158 kts | 33° |
| 2026-04-18 09:29 | 27.63833 | 86.69461 | 11118 ft | 170 kts | 29° |
| 2026-04-18 09:30 | 27.64869 | 86.70105 | 10625 ft | 161 kts | 24° |
| 2026-04-18 09:30 | 27.65839 | 86.70632 | 10180 ft | 154 kts | 24° |
| 2026-04-18 09:30 | 27.66789 | 86.71206 | 9762 ft | 152 kts | 25° |
| 2026-04-18 09:30 | 27.67687 | 86.71646 | 9299 ft | 127 kts | 22° |
| 2026-04-18 09:31 | 27.68295 | 86.72224 | 9088 ft | 111 kts | 54° |
| 2026-04-18 09:31 | 27.68651 | 86.72894 | 9290 ft | 74 kts | 62° |
| 2026-04-18 09:31 | 27.68770 | 86.73121 | 9423 ft | 12 kts | 56° |
| 2026-04-18 09:31 | 27.68762 | 86.73170 | 9424 ft | 6 kts | 151° |
| 2026-04-18 09:32 | 27.68745 | 86.73200 | 9425 ft | 5 kts | 43° |
| 2026-04-18 09:32 | 27.68754 | 86.73198 | 9424 ft | 0 kts | 298° |